sensor_id;sensor_type;location;lat;lon;timestamp;P1;durP1;ratioP1;P2;durP2;ratioP2
21281;SDS011;10800;53.096;18.328;2022-08-19T00:03:09;23.80;;;18.15;;
21281;SDS011;10800;53.096;18.328;2022-08-19T00:08:14;24.02;;;17.42;;
21281;SDS011;10800;53.096;18.328;2022-08-19T00:13:20;27.62;;;18.27;;
21281;SDS011;10800;53.096;18.328;2022-08-19T00:18:25;27.40;;;18.62;;
21281;SDS011;10800;53.096;18.328;2022-08-19T00:23:31;23.87;;;17.55;;
21281;SDS011;10800;53.096;18.328;2022-08-19T00:28:38;25.10;;;17.32;;
21281;SDS011;10800;53.096;18.328;2022-08-19T00:33:44;24.50;;;18.15;;
21281;SDS011;10800;53.096;18.328;2022-08-19T00:38:49;24.57;;;17.27;;
21281;SDS011;10800;53.096;18.328;2022-08-19T00:44:02;25.75;;;17.23;;
21281;SDS011;10800;53.096;18.328;2022-08-19T00:49:14;24.63;;;16.90;;
21281;SDS011;10800;53.096;18.328;2022-08-19T00:54:19;28.85;;;18.57;;
21281;SDS011;10800;53.096;18.328;2022-08-19T00:59:26;25.97;;;18.73;;
21281;SDS011;10800;53.096;18.328;2022-08-19T01:04:35;25.85;;;17.65;;
21281;SDS011;10800;53.096;18.328;2022-08-19T01:09:41;24.65;;;17.55;;
21281;SDS011;10800;53.096;18.328;2022-08-19T01:14:46;28.02;;;17.80;;
21281;SDS011;10800;53.096;18.328;2022-08-19T01:19:53;26.07;;;18.40;;
21281;SDS011;10800;53.096;18.328;2022-08-19T01:25:01;23.77;;;18.45;;
21281;SDS011;10800;53.096;18.328;2022-08-19T01:30:08;27.22;;;18.95;;
21281;SDS011;10800;53.096;18.328;2022-08-19T01:35:17;24.23;;;19.53;;
21281;SDS011;10800;53.096;18.328;2022-08-19T01:40:24;33.27;;;19.93;;
21281;SDS011;10800;53.096;18.328;2022-08-19T01:45:33;34.35;;;19.15;;
21281;SDS011;10800;53.096;18.328;2022-08-19T01:50:39;23.47;;;18.80;;
21281;SDS011;10800;53.096;18.328;2022-08-19T01:55:46;25.40;;;18.53;;
21281;SDS011;10800;53.096;18.328;2022-08-19T02:00:52;26.57;;;18.52;;
21281;SDS011;10800;53.096;18.328;2022-08-19T02:05:58;28.70;;;19.45;;
21281;SDS011;10800;53.096;18.328;2022-08-19T02:11:06;26.93;;;18.97;;
21281;SDS011;10800;53.096;18.328;2022-08-19T02:16:12;31.70;;;18.70;;
21281;SDS011;10800;53.096;18.328;2022-08-19T02:21:18;25.37;;;19.87;;
21281;SDS011;10800;53.096;18.328;2022-08-19T02:26:25;28.97;;;19.73;;
21281;SDS011;10800;53.096;18.328;2022-08-19T02:31:31;29.73;;;19.87;;
21281;SDS011;10800;53.096;18.328;2022-08-19T02:36:37;25.43;;;19.50;;
21281;SDS011;10800;53.096;18.328;2022-08-19T02:41:44;27.50;;;19.13;;
21281;SDS011;10800;53.096;18.328;2022-08-19T02:46:49;26.60;;;19.23;;
21281;SDS011;10800;53.096;18.328;2022-08-19T02:51:55;32.07;;;19.57;;
21281;SDS011;10800;53.096;18.328;2022-08-19T02:57:00;28.40;;;19.60;;
21281;SDS011;10800;53.096;18.328;2022-08-19T03:02:06;27.75;;;18.62;;
21281;SDS011;10800;53.096;18.328;2022-08-19T03:07:15;27.07;;;19.80;;
21281;SDS011;10800;53.096;18.328;2022-08-19T03:12:22;27.50;;;19.03;;
21281;SDS011;10800;53.096;18.328;2022-08-19T03:17:27;28.47;;;18.77;;
21281;SDS011;10800;53.096;18.328;2022-08-19T03:22:32;23.73;;;18.50;;
21281;SDS011;10800;53.096;18.328;2022-08-19T03:27:38;28.97;;;20.47;;
21281;SDS011;10800;53.096;18.328;2022-08-19T03:32:43;28.77;;;19.93;;
21281;SDS011;10800;53.096;18.328;2022-08-19T03:37:50;27.03;;;19.23;;
21281;SDS011;10800;53.096;18.328;2022-08-19T03:42:56;31.80;;;20.13;;
21281;SDS011;10800;53.096;18.328;2022-08-19T03:48:02;31.90;;;21.83;;
21281;SDS011;10800;53.096;18.328;2022-08-19T03:53:08;27.90;;;21.70;;
21281;SDS011;10800;53.096;18.328;2022-08-19T03:58:13;31.37;;;22.10;;
21281;SDS011;10800;53.096;18.328;2022-08-19T04:03:19;29.70;;;22.43;;
21281;SDS011;10800;53.096;18.328;2022-08-19T04:08:24;30.07;;;21.17;;
21281;SDS011;10800;53.096;18.328;2022-08-19T04:13:30;33.83;;;22.30;;
21281;SDS011;10800;53.096;18.328;2022-08-19T04:18:36;29.17;;;21.57;;
21281;SDS011;10800;53.096;18.328;2022-08-19T04:23:44;30.73;;;22.67;;
21281;SDS011;10800;53.096;18.328;2022-08-19T04:28:50;36.40;;;21.73;;
21281;SDS011;10800;53.096;18.328;2022-08-19T04:33:58;32.20;;;21.27;;
21281;SDS011;10800;53.096;18.328;2022-08-19T04:39:07;27.20;;;21.03;;
21281;SDS011;10800;53.096;18.328;2022-08-19T04:44:14;28.67;;;20.50;;
21281;SDS011;10800;53.096;18.328;2022-08-19T04:49:23;30.43;;;20.60;;
21281;SDS011;10800;53.096;18.328;2022-08-19T04:54:31;24.67;;;18.98;;
21281;SDS011;10800;53.096;18.328;2022-08-19T04:59:39;29.67;;;19.40;;
21281;SDS011;10800;53.096;18.328;2022-08-19T05:04:44;27.95;;;19.73;;
21281;SDS011;10800;53.096;18.328;2022-08-19T05:10:09;31.68;;;19.37;;
21281;SDS011;10800;53.096;18.328;2022-08-19T05:15:15;30.27;;;19.80;;
21281;SDS011;10800;53.096;18.328;2022-08-19T05:20:22;27.77;;;18.48;;
21281;SDS011;10800;53.096;18.328;2022-08-19T05:25:46;23.42;;;16.95;;
21281;SDS011;10800;53.096;18.328;2022-08-19T05:30:51;33.30;;;17.67;;
21281;SDS011;10800;53.096;18.328;2022-08-19T05:36:04;29.32;;;18.27;;
21281;SDS011;10800;53.096;18.328;2022-08-19T05:41:11;31.73;;;18.10;;
21281;SDS011;10800;53.096;18.328;2022-08-19T05:46:20;25.88;;;17.52;;
21281;SDS011;10800;53.096;18.328;2022-08-19T05:51:29;20.45;;;15.58;;
21281;SDS011;10800;53.096;18.328;2022-08-19T05:56:45;21.80;;;15.50;;
21281;SDS011;10800;53.096;18.328;2022-08-19T06:01:51;20.75;;;14.53;;
21281;SDS011;10800;53.096;18.328;2022-08-19T06:06:59;19.60;;;14.38;;
21281;SDS011;10800;53.096;18.328;2022-08-19T06:12:07;22.98;;;15.88;;
21281;SDS011;10800;53.096;18.328;2022-08-19T06:17:15;19.62;;;12.95;;
21281;SDS011;10800;53.096;18.328;2022-08-19T06:22:21;17.27;;;13.03;;
21281;SDS011;10800;53.096;18.328;2022-08-19T06:27:29;16.27;;;11.38;;
21281;SDS011;10800;53.096;18.328;2022-08-19T06:32:42;17.95;;;10.88;;
21281;SDS011;10800;53.096;18.328;2022-08-19T06:37:57;18.87;;;10.80;;
21281;SDS011;10800;53.096;18.328;2022-08-19T06:43:03;13.22;;;9.15;;
21281;SDS011;10800;53.096;18.328;2022-08-19T06:48:12;12.47;;;9.20;;
21281;SDS011;10800;53.096;18.328;2022-08-19T06:53:20;17.37;;;9.10;;
21281;SDS011;10800;53.096;18.328;2022-08-19T06:58:25;16.77;;;9.63;;
21281;SDS011;10800;53.096;18.328;2022-08-19T07:03:34;13.90;;;9.00;;
21281;SDS011;10800;53.096;18.328;2022-08-19T07:08:43;12.35;;;8.25;;
21281;SDS011;10800;53.096;18.328;2022-08-19T07:13:50;11.10;;;9.18;;
21281;SDS011;10800;53.096;18.328;2022-08-19T07:18:57;19.10;;;9.30;;
21281;SDS011;10800;53.096;18.328;2022-08-19T07:24:04;12.75;;;8.28;;
21281;SDS011;10800;53.096;18.328;2022-08-19T07:29:10;13.62;;;8.50;;
21281;SDS011;10800;53.096;18.328;2022-08-19T07:34:16;18.98;;;9.00;;
21281;SDS011;10800;53.096;18.328;2022-08-19T07:39:24;17.67;;;8.80;;
21281;SDS011;10800;53.096;18.328;2022-08-19T07:44:33;15.30;;;8.50;;
21281;SDS011;10800;53.096;18.328;2022-08-19T07:49:43;14.98;;;8.38;;
21281;SDS011;10800;53.096;18.328;2022-08-19T07:54:50;9.98;;;7.78;;
21281;SDS011;10800;53.096;18.328;2022-08-19T07:59:56;9.28;;;7.33;;
21281;SDS011;10800;53.096;18.328;2022-08-19T08:05:02;10.13;;;7.10;;
21281;SDS011;10800;53.096;18.328;2022-08-19T08:10:26;15.53;;;7.08;;
21281;SDS011;10800;53.096;18.328;2022-08-19T08:15:33;8.88;;;6.87;;
21281;SDS011;10800;53.096;18.328;2022-08-19T08:20:45;10.08;;;6.42;;
21281;SDS011;10800;53.096;18.328;2022-08-19T08:25:52;11.22;;;6.97;;
21281;SDS011;10800;53.096;18.328;2022-08-19T08:31:00;13.45;;;6.62;;
21281;SDS011;10800;53.096;18.328;2022-08-19T08:36:08;11.28;;;6.20;;
21281;SDS011;10800;53.096;18.328;2022-08-19T08:41:21;16.42;;;7.20;;
21281;SDS011;10800;53.096;18.328;2022-08-19T08:46:53;8.65;;;6.37;;
21281;SDS011;10800;53.096;18.328;2022-08-19T08:51:59;11.50;;;6.10;;
21281;SDS011;10800;53.096;18.328;2022-08-19T09:02:24;15.15;;;6.45;;
21281;SDS011;10800;53.096;18.328;2022-08-19T09:07:47;14.87;;;6.15;;
21281;SDS011;10800;53.096;18.328;2022-08-19T09:18:21;11.68;;;6.47;;
21281;SDS011;10800;53.096;18.328;2022-08-19T09:23:28;9.88;;;6.42;;
21281;SDS011;10800;53.096;18.328;2022-08-19T09:28:35;14.80;;;6.50;;
21281;SDS011;10800;53.096;18.328;2022-08-19T09:33:43;8.85;;;6.25;;
21281;SDS011;10800;53.096;18.328;2022-08-19T09:38:48;15.38;;;6.85;;
21281;SDS011;10800;53.096;18.328;2022-08-19T09:43:55;9.33;;;6.70;;
21281;SDS011;10800;53.096;18.328;2022-08-19T09:49:04;9.65;;;6.47;;
21281;SDS011;10800;53.096;18.328;2022-08-19T09:54:15;11.78;;;6.87;;
21281;SDS011;10800;53.096;18.328;2022-08-19T09:59:22;9.00;;;6.92;;
21281;SDS011;10800;53.096;18.328;2022-08-19T12:17:42;11.08;;;7.08;;
21281;SDS011;10800;53.096;18.328;2022-08-19T12:22:47;12.98;;;6.95;;
21281;SDS011;10800;53.096;18.328;2022-08-19T12:27:52;10.35;;;6.50;;
21281;SDS011;10800;53.096;18.328;2022-08-19T12:33:00;13.50;;;7.20;;
21281;SDS011;10800;53.096;18.328;2022-08-19T12:38:05;18.50;;;7.17;;
21281;SDS011;10800;53.096;18.328;2022-08-19T12:43:10;20.43;;;6.95;;
21281;SDS011;10800;53.096;18.328;2022-08-19T12:48:15;13.80;;;6.33;;
21281;SDS011;10800;53.096;18.328;2022-08-19T12:53:23;13.83;;;6.40;;
21281;SDS011;10800;53.096;18.328;2022-08-19T12:58:29;10.40;;;6.40;;
21281;SDS011;10800;53.096;18.328;2022-08-19T13:03:34;9.33;;;6.25;;
21281;SDS011;10800;53.096;18.328;2022-08-19T13:08:41;12.63;;;7.03;;
21281;SDS011;10800;53.096;18.328;2022-08-19T13:13:49;15.38;;;6.65;;
21281;SDS011;10800;53.096;18.328;2022-08-19T13:18:56;10.85;;;7.15;;
21281;SDS011;10800;53.096;18.328;2022-08-19T13:24:08;12.47;;;5.95;;
21281;SDS011;10800;53.096;18.328;2022-08-19T13:29:14;17.00;;;6.72;;
21281;SDS011;10800;53.096;18.328;2022-08-19T13:34:37;15.53;;;7.10;;
21281;SDS011;10800;53.096;18.328;2022-08-19T13:39:43;13.08;;;6.47;;
21281;SDS011;10800;53.096;18.328;2022-08-19T13:44:48;14.50;;;6.17;;
21281;SDS011;10800;53.096;18.328;2022-08-19T13:49:53;19.80;;;6.00;;
21281;SDS011;10800;53.096;18.328;2022-08-19T13:54:58;20.10;;;6.12;;
21281;SDS011;10800;53.096;18.328;2022-08-19T14:00:06;10.30;;;6.50;;
21281;SDS011;10800;53.096;18.328;2022-08-19T14:05:14;13.20;;;5.62;;
21281;SDS011;10800;53.096;18.328;2022-08-19T14:10:20;13.30;;;5.97;;
21281;SDS011;10800;53.096;18.328;2022-08-19T14:15:28;13.70;;;6.00;;
21281;SDS011;10800;53.096;18.328;2022-08-19T14:20:35;12.95;;;5.25;;
21281;SDS011;10800;53.096;18.328;2022-08-19T14:25:40;14.35;;;5.70;;
21281;SDS011;10800;53.096;18.328;2022-08-19T14:30:46;11.43;;;5.40;;
21281;SDS011;10800;53.096;18.328;2022-08-19T14:35:51;10.80;;;5.42;;
21281;SDS011;10800;53.096;18.328;2022-08-19T14:41:19;12.40;;;5.65;;
21281;SDS011;10800;53.096;18.328;2022-08-19T14:46:20;15.32;;;5.78;;
21281;SDS011;10800;53.096;18.328;2022-08-19T14:51:27;10.28;;;5.20;;
21281;SDS011;10800;53.096;18.328;2022-08-19T14:56:32;14.43;;;5.72;;
21281;SDS011;10800;53.096;18.328;2022-08-19T15:01:38;12.50;;;5.37;;
21281;SDS011;10800;53.096;18.328;2022-08-19T15:06:43;14.18;;;4.83;;
21281;SDS011;10800;53.096;18.328;2022-08-19T15:11:49;7.83;;;5.10;;
21281;SDS011;10800;53.096;18.328;2022-08-19T15:16:55;14.28;;;5.80;;
21281;SDS011;10800;53.096;18.328;2022-08-19T15:22:00;17.70;;;5.87;;
21281;SDS011;10800;53.096;18.328;2022-08-19T15:27:15;12.07;;;5.65;;
21281;SDS011;10800;53.096;18.328;2022-08-19T15:32:20;8.10;;;5.78;;
21281;SDS011;10800;53.096;18.328;2022-08-19T15:37:26;15.95;;;5.12;;
21281;SDS011;10800;53.096;18.328;2022-08-19T15:42:32;11.57;;;5.53;;
21281;SDS011;10800;53.096;18.328;2022-08-19T15:47:39;9.50;;;4.95;;
21281;SDS011;10800;53.096;18.328;2022-08-19T15:52:49;11.97;;;5.15;;
21281;SDS011;10800;53.096;18.328;2022-08-19T15:57:56;12.28;;;4.90;;
21281;SDS011;10800;53.096;18.328;2022-08-19T16:03:21;13.53;;;5.05;;
21281;SDS011;10800;53.096;18.328;2022-08-19T16:08:44;11.25;;;5.03;;
21281;SDS011;10800;53.096;18.328;2022-08-19T16:13:52;19.65;;;6.80;;
21281;SDS011;10800;53.096;18.328;2022-08-19T16:19:03;15.60;;;5.53;;
21281;SDS011;10800;53.096;18.328;2022-08-19T16:24:12;22.05;;;6.12;;
21281;SDS011;10800;53.096;18.328;2022-08-19T16:29:20;14.18;;;5.47;;
21281;SDS011;10800;53.096;18.328;2022-08-19T16:34:30;15.38;;;5.95;;
21281;SDS011;10800;53.096;18.328;2022-08-19T16:39:37;14.47;;;5.78;;
21281;SDS011;10800;53.096;18.328;2022-08-19T16:44:48;16.27;;;6.28;;
21281;SDS011;10800;53.096;18.328;2022-08-19T16:49:53;13.22;;;5.28;;
21281;SDS011;10800;53.096;18.328;2022-08-19T16:54:59;14.70;;;5.60;;
21281;SDS011;10800;53.096;18.328;2022-08-19T17:00:04;10.93;;;5.47;;
21281;SDS011;10800;53.096;18.328;2022-08-19T17:05:18;9.68;;;5.20;;
21281;SDS011;10800;53.096;18.328;2022-08-19T17:10:23;13.32;;;5.70;;
21281;SDS011;10800;53.096;18.328;2022-08-19T17:15:29;12.47;;;6.62;;
21281;SDS011;10800;53.096;18.328;2022-08-19T17:20:35;24.77;;;15.05;;
21281;SDS011;10800;53.096;18.328;2022-08-19T17:25:42;20.88;;;11.12;;
21281;SDS011;10800;53.096;18.328;2022-08-19T17:30:47;16.35;;;7.70;;
21281;SDS011;10800;53.096;18.328;2022-08-19T17:35:55;21.02;;;8.90;;
21281;SDS011;10800;53.096;18.328;2022-08-19T17:41:00;29.20;;;12.00;;
21281;SDS011;10800;53.096;18.328;2022-08-19T17:46:08;35.13;;;16.23;;
21281;SDS011;10800;53.096;18.328;2022-08-19T17:51:19;25.70;;;12.45;;
21281;SDS011;10800;53.096;18.328;2022-08-19T17:56:27;28.17;;;13.72;;
21281;SDS011;10800;53.096;18.328;2022-08-19T18:01:32;25.88;;;11.50;;
21281;SDS011;10800;53.096;18.328;2022-08-19T18:06:39;18.62;;;10.30;;
21281;SDS011;10800;53.096;18.328;2022-08-19T18:11:46;22.82;;;10.98;;
21281;SDS011;10800;53.096;18.328;2022-08-19T18:16:53;20.55;;;11.03;;
21281;SDS011;10800;53.096;18.328;2022-08-19T18:21:59;18.82;;;10.70;;
21281;SDS011;10800;53.096;18.328;2022-08-19T18:27:11;18.75;;;10.35;;
21281;SDS011;10800;53.096;18.328;2022-08-19T18:32:16;18.98;;;10.00;;
21281;SDS011;10800;53.096;18.328;2022-08-19T18:37:24;15.30;;;9.45;;
21281;SDS011;10800;53.096;18.328;2022-08-19T18:42:29;13.35;;;8.53;;
21281;SDS011;10800;53.096;18.328;2022-08-19T18:48:00;14.58;;;9.70;;
21281;SDS011;10800;53.096;18.328;2022-08-19T18:53:29;17.70;;;10.00;;
21281;SDS011;10800;53.096;18.328;2022-08-19T18:58:40;21.10;;;9.85;;
21281;SDS011;10800;53.096;18.328;2022-08-19T19:03:50;16.05;;;9.20;;
21281;SDS011;10800;53.096;18.328;2022-08-19T19:08:57;13.03;;;8.68;;
21281;SDS011;10800;53.096;18.328;2022-08-19T19:14:05;18.62;;;9.85;;
21281;SDS011;10800;53.096;18.328;2022-08-19T19:19:18;24.20;;;9.10;;
21281;SDS011;10800;53.096;18.328;2022-08-19T19:24:27;15.48;;;9.65;;
21281;SDS011;10800;53.096;18.328;2022-08-19T19:29:35;21.27;;;10.13;;
21281;SDS011;10800;53.096;18.328;2022-08-19T19:34:40;17.67;;;10.10;;
21281;SDS011;10800;53.096;18.328;2022-08-19T19:39:51;19.17;;;9.50;;
21281;SDS011;10800;53.096;18.328;2022-08-19T19:44:59;16.75;;;9.23;;
21281;SDS011;10800;53.096;18.328;2022-08-19T19:50:05;14.85;;;9.20;;
21281;SDS011;10800;53.096;18.328;2022-08-19T19:55:14;16.82;;;9.20;;
21281;SDS011;10800;53.096;18.328;2022-08-19T20:00:23;22.90;;;9.95;;
21281;SDS011;10800;53.096;18.328;2022-08-19T20:05:33;18.77;;;10.03;;
21281;SDS011;10800;53.096;18.328;2022-08-19T20:10:39;16.90;;;10.23;;
21281;SDS011;10800;53.096;18.328;2022-08-19T20:15:46;14.78;;;9.70;;
21281;SDS011;10800;53.096;18.328;2022-08-19T20:20:51;20.45;;;10.95;;
21281;SDS011;10800;53.096;18.328;2022-08-19T20:25:57;14.90;;;10.50;;
21281;SDS011;10800;53.096;18.328;2022-08-19T20:31:02;23.95;;;10.65;;
21281;SDS011;10800;53.096;18.328;2022-08-19T20:36:08;23.20;;;11.00;;
21281;SDS011;10800;53.096;18.328;2022-08-19T20:41:13;17.95;;;11.88;;
21281;SDS011;10800;53.096;18.328;2022-08-19T20:47:23;17.98;;;12.40;;
21281;SDS011;10800;53.096;18.328;2022-08-19T20:53:39;23.73;;;12.33;;
21281;SDS011;10800;53.096;18.328;2022-08-19T20:58:39;20.00;;;13.35;;
21281;SDS011;10800;53.096;18.328;2022-08-19T21:04:10;19.85;;;10.78;;
21281;SDS011;10800;53.096;18.328;2022-08-19T21:09:47;20.72;;;12.23;;
21281;SDS011;10800;53.096;18.328;2022-08-19T21:15:07;19.77;;;12.07;;
21281;SDS011;10800;53.096;18.328;2022-08-19T21:20:50;21.85;;;12.20;;
21281;SDS011;10800;53.096;18.328;2022-08-19T21:26:56;16.85;;;12.13;;
21281;SDS011;10800;53.096;18.328;2022-08-19T21:32:18;17.90;;;11.97;;
21281;SDS011;10800;53.096;18.328;2022-08-19T21:43:39;17.02;;;12.23;;
21281;SDS011;10800;53.096;18.328;2022-08-19T21:49:16;45.00;;;13.85;;
21281;SDS011;10800;53.096;18.328;2022-08-19T21:54:40;19.25;;;13.50;;
21281;SDS011;10800;53.096;18.328;2022-08-19T22:00:16;20.92;;;14.10;;
21281;SDS011;10800;53.096;18.328;2022-08-19T22:05:23;24.47;;;15.23;;
21281;SDS011;10800;53.096;18.328;2022-08-19T22:16:23;25.57;;;15.72;;
21281;SDS011;10800;53.096;18.328;2022-08-19T22:22:26;27.15;;;16.17;;
21281;SDS011;10800;53.096;18.328;2022-08-19T22:27:57;23.98;;;16.50;;
21281;SDS011;10800;53.096;18.328;2022-08-19T22:33:23;23.87;;;16.25;;
21281;SDS011;10800;53.096;18.328;2022-08-19T22:43:46;25.37;;;15.58;;
21281;SDS011;10800;53.096;18.328;2022-08-19T22:48:57;20.90;;;15.53;;
21281;SDS011;10800;53.096;18.328;2022-08-19T22:54:26;29.87;;;16.27;;
21281;SDS011;10800;53.096;18.328;2022-08-19T22:59:46;23.20;;;16.42;;
21281;SDS011;10800;53.096;18.328;2022-08-19T23:05:08;23.85;;;16.00;;
21281;SDS011;10800;53.096;18.328;2022-08-19T23:10:18;22.90;;;16.00;;
21281;SDS011;10800;53.096;18.328;2022-08-19T23:15:44;26.73;;;16.62;;
21281;SDS011;10800;53.096;18.328;2022-08-19T23:20:57;29.32;;;16.97;;
21281;SDS011;10800;53.096;18.328;2022-08-19T23:26:10;23.05;;;17.20;;
21281;SDS011;10800;53.096;18.328;2022-08-19T23:31:19;30.62;;;17.07;;
21281;SDS011;10800;53.096;18.328;2022-08-19T23:36:45;24.18;;;17.75;;
21281;SDS011;10800;53.096;18.328;2022-08-19T23:42:01;28.60;;;18.60;;
21281;SDS011;10800;53.096;18.328;2022-08-19T23:47:10;24.90;;;17.60;;
21281;SDS011;10800;53.096;18.328;2022-08-19T23:52:21;28.65;;;19.42;;
